Time;durP1;ratioP1;P1;durP2;ratioP2;P2;SDS_P1;SDS_P2;PMS_P1;PMS_P2;Temp;Humidity;BMP_temperature;BMP_pressure;BME280_temperature;BME280_humidity;BME280_pressure;Samples;Min_cycle;Max_cycle;Signal;HPM_P1;HPM_P2
2022/07/17 00:02:00;;;;;;;3.50;2.90;;;;;;;-142.91;100.00;56616.03;5009815;28;20711;-64
2022/07/17 00:04:26;;;;;;;6.68;6.07;;;;;;;-142.91;100.00;56616.03;5009676;28;20195;-64
2022/07/17 00:06:53;;;;;;;3.40;3.20;;;;;;;-142.91;100.00;56616.03;5008733;28;20710;-64
2022/07/17 00:09:20;;;;;;;4.03;3.65;;;;;;;-142.91;100.00;56616.03;5009843;28;20301;-65
2022/07/17 00:11:47;;;;;;;2.85;2.38;;;;;;;-142.91;100.00;56616.03;5010547;28;20215;-63
2022/07/17 00:14:15;;;;;;;3.05;2.85;;;;;;;-142.91;100.00;56616.03;5010148;28;20210;-64
2022/07/17 00:16:42;;;;;;;3.75;2.50;;;;;;;-142.91;100.00;56616.03;5009226;28;20282;-64
2022/07/17 00:19:09;;;;;;;4.43;2.53;;;;;;;-142.91;100.00;56616.03;5007721;28;20207;-64
2022/07/17 00:21:36;;;;;;;3.55;3.25;;;;;;;-142.91;100.00;56616.03;5008286;28;20198;-65
2022/07/17 00:24:02;;;;;;;4.63;4.03;;;;;;;-142.91;100.00;56616.03;5004641;28;20211;-64
2022/07/17 00:26:29;;;;;;;4.28;3.80;;;;;;;-142.91;100.00;56616.03;5006743;28;21308;-64
2022/07/17 00:28:56;;;;;;;11.95;9.75;;;;;;;-142.91;100.00;56616.03;5008660;28;20268;-63
2022/07/17 00:31:24;;;;;;;8.10;5.57;;;;;;;-142.91;100.00;56616.03;5002443;28;20207;-64
2022/07/17 00:33:51;;;;;;;5.80;3.00;;;;;;;-142.91;100.00;56616.03;5005109;28;20207;-65
2022/07/17 00:36:18;;;;;;;2.85;2.65;;;;;;;-142.91;100.00;56616.03;5007248;28;20191;-65
2022/07/17 00:38:45;;;;;;;3.08;2.60;;;;;;;-142.91;100.00;56616.03;5002833;28;20203;-65
2022/07/17 00:41:14;;;;;;;3.17;2.72;;;;;;;-142.91;100.00;56616.03;5007239;28;20211;-63
2022/07/17 00:43:42;;;;;;;3.10;2.90;;;;;;;-142.91;100.00;56616.03;5009865;28;20646;-64
2022/07/17 00:46:08;;;;;;;3.17;2.55;;;;;;;-142.91;100.00;56616.03;5009257;28;20746;-64
2022/07/17 00:48:37;;;;;;;3.42;2.58;;;;;;;-142.91;100.00;56616.03;5009026;28;20217;-65
2022/07/17 00:51:03;;;;;;;3.53;3.33;;;;;;;-142.91;100.00;56616.03;5008602;28;20684;-65
2022/07/17 00:53:33;;;;;;;4.68;3.72;;;;;;;-142.91;100.00;56616.03;5009465;28;20210;-64
2022/07/17 00:56:03;;;;;;;3.28;3.08;;;;;;;-142.91;100.00;56616.03;5008792;28;20209;-64
2022/07/17 00:58:30;;;;;;;3.87;2.60;;;;;;;-142.91;100.00;56616.03;5007973;28;20450;-64
2022/07/17 01:00:57;;;;;;;7.53;3.33;;;;;;;-142.91;100.00;56616.03;5009379;28;20446;-63
2022/07/17 01:03:25;;;;;;;2.40;2.30;;;;;;;-142.91;100.00;56616.03;5008188;28;20620;-64
2022/07/17 01:05:54;;;;;;;3.50;3.20;;;;;;;-142.91;100.00;56616.03;5008567;28;20227;-63
2022/07/17 01:08:21;;;;;;;3.05;2.80;;;;;;;-142.91;100.00;56616.03;5009145;28;20244;-63
2022/07/17 01:10:48;;;;;;;5.55;2.75;;;;;;;-142.91;100.00;56616.03;5008852;28;20323;-64
2022/07/17 01:13:15;;;;;;;3.53;2.60;;;;;;;-142.91;100.00;56616.03;5006599;28;20845;-65
2022/07/17 01:15:42;;;;;;;3.10;2.53;;;;;;;-142.91;100.00;56616.03;5003504;28;20224;-64
2022/07/17 01:18:11;;;;;;;4.88;3.10;;;;;;;-142.91;100.00;56616.03;5007056;28;20256;-64
2022/07/17 01:20:40;;;;;;;2.97;2.40;;;;;;;-142.91;100.00;56616.03;5004521;28;20234;-64
2022/07/17 01:23:09;;;;;;;2.78;2.63;;;;;;;-142.91;100.00;56616.03;5004495;28;20260;-64
2022/07/17 01:25:36;;;;;;;3.25;2.97;;;;;;;-142.91;100.00;56616.03;5002562;28;20284;-65
2022/07/17 01:28:04;;;;;;;3.33;2.60;;;;;;;-142.91;100.00;56616.03;5009316;28;20254;-63
2022/07/17 01:30:31;;;;;;;4.03;2.58;;;;;;;-142.91;100.00;56616.03;5007747;28;20230;-63
2022/07/17 01:32:58;;;;;;;3.40;3.10;;;;;;;-142.91;100.00;56616.03;5009052;28;20203;-63
2022/07/17 01:35:25;;;;;;;6.35;3.25;;;;;;;-142.91;100.00;56616.03;5008708;28;20237;-62
2022/07/17 01:37:51;;;;;;;4.75;2.38;;;;;;;-142.91;100.00;56616.03;5004519;28;20296;-62
2022/07/17 01:40:20;;;;;;;8.63;7.22;;;;;;;-142.91;100.00;56616.03;5005997;28;20211;-63
2022/07/17 01:42:49;;;;;;;3.60;3.40;;;;;;;-142.91;100.00;56616.03;5008637;28;20202;-62
2022/07/17 01:45:18;;;;;;;4.03;3.60;;;;;;;-142.91;100.00;56616.03;5005731;28;21314;-62
2022/07/17 01:47:46;;;;;;;4.55;4.25;;;;;;;-142.91;100.00;56616.03;5005327;28;21934;-64
2022/07/17 01:50:14;;;;;;;4.75;4.18;;;;;;;-142.91;100.00;56616.03;4999197;28;20214;-62
2022/07/17 01:52:42;;;;;;;6.75;3.67;;;;;;;-142.91;100.00;56616.03;5007144;28;20703;-63
2022/07/17 01:55:11;;;;;;;8.90;7.65;;;;;;;-142.91;100.00;56616.03;5004018;28;20218;-63
2022/07/17 01:57:39;;;;;;;5.00;3.28;;;;;;;-142.91;100.00;56616.03;5009010;28;20199;-63
2022/07/17 02:00:09;;;;;;;3.35;3.05;;;;;;;-142.91;100.00;56616.03;5007356;28;20680;-63
2022/07/17 02:02:36;;;;;;;6.63;3.00;;;;;;;-142.91;100.00;56616.03;5006808;28;20207;-65
2022/07/17 02:05:04;;;;;;;38.22;26.15;;;;;;;-142.91;100.00;56616.03;5006220;28;20377;-63
2022/07/17 02:07:31;;;;;;;8.63;7.88;;;;;;;-142.91;100.00;56616.03;5005612;28;20593;-63
2022/07/17 02:09:58;;;;;;;17.02;11.90;;;;;;;-142.91;100.00;56616.03;5007037;28;20907;-63
2022/07/17 02:12:25;;;;;;;4.10;3.05;;;;;;;-142.91;100.00;56616.03;5006416;28;20199;-62
2022/07/17 02:14:53;;;;;;;3.47;3.17;;;;;;;-142.91;100.00;56616.03;5009810;28;20915;-62
2022/07/17 02:17:20;;;;;;;3.45;3.25;;;;;;;-142.91;100.00;56616.03;5007964;28;20643;-63
2022/07/17 02:19:47;;;;;;;2.92;2.78;;;;;;;-142.91;100.00;56616.03;5006277;28;20207;-64
2022/07/17 02:22:14;;;;;;;3.05;2.85;;;;;;;-142.91;100.00;56616.03;5007161;28;20210;-63
2022/07/17 02:24:40;;;;;;;3.22;2.92;;;;;;;-142.91;100.00;56616.03;5008201;28;20213;-65
2022/07/17 02:27:07;;;;;;;3.72;2.50;;;;;;;-142.91;100.00;56616.03;5007403;28;20219;-63
2022/07/17 02:29:34;;;;;;;9.15;2.67;;;;;;;-142.91;100.00;56616.03;5007314;28;20203;-64
2022/07/17 02:32:02;;;;;;;4.47;2.63;;;;;;;-142.91;100.00;56616.03;5007760;28;20451;-63
2022/07/17 02:34:29;;;;;;;3.15;2.90;;;;;;;-142.91;100.00;56616.03;5007826;28;20280;-64
2022/07/17 02:36:56;;;;;;;2.95;2.85;;;;;;;-142.91;100.00;56616.03;5008141;28;20575;-63
2022/07/17 02:39:22;;;;;;;3.28;3.08;;;;;;;-142.91;100.00;56616.03;5004982;28;20684;-64
2022/07/17 02:41:49;;;;;;;3.08;2.88;;;;;;;-142.91;100.00;56616.03;5005230;28;21257;-63
2022/07/17 02:44:16;;;;;;;4.20;2.90;;;;;;;-142.91;100.00;56616.03;5007823;28;20207;-64
2022/07/17 02:46:43;;;;;;;2.83;2.35;;;;;;;-142.91;100.00;56616.03;5006709;28;20239;-64
2022/07/17 02:49:11;;;;;;;4.22;2.47;;;;;;;-142.91;100.00;56616.03;5006937;28;20211;-64
2022/07/17 02:51:37;;;;;;;3.00;2.38;;;;;;;-142.91;100.00;56616.03;5006761;28;20236;-64
2022/07/17 02:54:04;;;;;;;2.80;2.70;;;;;;;-142.91;100.00;56616.03;5007836;28;20684;-63
2022/07/17 02:56:31;;;;;;;2.47;2.38;;;;;;;-142.91;100.00;56616.03;5007147;28;20215;-63
2022/07/17 02:58:58;;;;;;;9.80;2.90;;;;;;;-142.91;100.00;56616.03;5007140;28;20207;-65
2022/07/17 03:01:25;;;;;;;2.83;2.63;;;;;;;-142.91;100.00;56616.03;5008480;28;20262;-63
2022/07/17 03:03:51;;;;;;;2.97;2.78;;;;;;;-142.91;100.00;56616.03;5005660;28;20294;-65
2022/07/17 03:06:20;;;;;;;3.40;2.45;;;;;;;-142.91;100.00;56616.03;5005875;28;20223;-64
2022/07/17 03:08:46;;;;;;;3.75;2.97;;;;;;;-142.91;100.00;56616.03;5005836;28;20223;-64
2022/07/17 03:11:13;;;;;;;4.63;2.53;;;;;;;-142.91;100.00;56616.03;5005875;28;20921;-63
2022/07/17 03:13:40;;;;;;;4.07;3.03;;;;;;;-142.91;100.00;56616.03;5005555;28;20211;-63
2022/07/17 03:16:07;;;;;;;2.75;2.65;;;;;;;-142.91;100.00;56616.03;5007172;28;20199;-64
2022/07/17 03:18:34;;;;;;;2.88;2.67;;;;;;;-142.91;100.00;56616.03;5009948;28;20847;-64
2022/07/17 03:21:01;;;;;;;6.18;3.00;;;;;;;-142.91;100.00;56616.03;5010579;28;20211;-64
2022/07/17 03:23:29;;;;;;;3.75;3.33;;;;;;;-142.91;100.00;56616.03;5006183;28;20210;-64
2022/07/17 03:25:56;;;;;;;3.75;3.45;;;;;;;-142.91;100.00;56616.03;5010742;28;20207;-64
2022/07/17 03:28:23;;;;;;;2.95;2.75;;;;;;;-142.91;100.00;56616.03;5012033;28;20215;-64
2022/07/17 03:30:50;;;;;;;3.17;2.90;;;;;;;-142.91;100.00;56616.03;5011413;28;20203;-64
2022/07/17 03:33:17;;;;;;;2.70;2.50;;;;;;;-142.91;100.00;56616.03;5011529;28;20214;-64
2022/07/17 03:35:43;;;;;;;4.85;2.83;;;;;;;-142.91;100.00;56616.03;5012728;28;20214;-64
2022/07/17 03:38:10;;;;;;;2.67;2.47;;;;;;;-142.91;100.00;56616.03;5011697;28;20199;-64
2022/07/17 03:40:38;;;;;;;3.05;2.85;;;;;;;-142.91;100.00;56616.03;5010385;28;20203;-64
2022/07/17 03:43:06;;;;;;;4.20;2.97;;;;;;;-142.91;100.00;56616.03;5010899;28;20211;-64
2022/07/17 03:45:32;;;;;;;3.10;2.90;;;;;;;-142.91;100.00;56616.03;5010530;28;20214;-64
2022/07/17 03:47:59;;;;;;;8.25;2.72;;;;;;;-142.91;100.00;56616.03;5010504;28;20223;-64
2022/07/17 03:50:26;;;;;;;6.80;3.00;;;;;;;-142.91;100.00;56616.03;5010919;28;20199;-64
2022/07/17 03:52:53;;;;;;;3.05;2.75;;;;;;;-142.91;100.00;56616.03;5009503;28;20261;-65
2022/07/17 03:55:20;;;;;;;7.85;2.65;;;;;;;-142.91;100.00;56616.03;5010657;28;20207;-64
2022/07/17 03:57:48;;;;;;;3.78;3.05;;;;;;;-142.91;100.00;56616.03;5013461;28;20285;-64
2022/07/17 04:00:15;;;;;;;7.93;3.05;;;;;;;-142.91;100.00;56616.03;5008607;28;20269;-64
2022/07/17 04:02:43;;;;;;;4.75;2.20;;;;;;;-142.91;100.00;56616.03;5009735;28;20252;-64
2022/07/17 04:05:10;;;;;;;4.60;2.65;;;;;;;-142.91;100.00;56616.03;5009233;28;20226;-64
2022/07/17 04:07:37;;;;;;;3.92;2.50;;;;;;;-142.91;100.00;56616.03;5010773;28;20227;-64
2022/07/17 04:10:05;;;;;;;4.70;3.50;;;;;;;-142.91;100.00;56616.03;5010119;28;20235;-64
2022/07/17 04:12:32;;;;;;;7.38;4.03;;;;;;;-142.91;100.00;56616.03;5009118;28;20211;-64
2022/07/17 04:15:00;;;;;;;4.78;3.50;;;;;;;-142.91;100.00;56616.03;5009832;28;20821;-64
2022/07/17 04:17:27;;;;;;;6.15;3.30;;;;;;;-142.91;100.00;56616.03;5011677;28;20203;-64
2022/07/17 04:19:54;;;;;;;3.28;2.97;;;;;;;-142.91;100.00;56616.03;5011319;28;20203;-65
2022/07/17 04:22:21;;;;;;;4.78;2.85;;;;;;;-142.91;100.00;56616.03;5009406;28;20206;-64
2022/07/17 04:24:48;;;;;;;2.80;2.60;;;;;;;-142.91;100.00;56616.03;5009045;28;21084;-64
2022/07/17 04:27:15;;;;;;;4.03;2.47;;;;;;;-142.91;100.00;56616.03;5011874;28;20223;-65
2022/07/17 04:29:42;;;;;;;2.88;2.67;;;;;;;-142.91;100.00;56616.03;5009881;28;20227;-64
2022/07/17 04:32:10;;;;;;;3.45;2.33;;;;;;;-142.91;100.00;56616.03;5010914;28;20214;-64
2022/07/17 04:34:37;;;;;;;7.07;3.00;;;;;;;-142.91;100.00;56616.03;5011103;28;20627;-64
2022/07/17 04:37:04;;;;;;;4.38;2.80;;;;;;;-142.91;100.00;56616.03;5010539;28;20203;-65
2022/07/17 04:39:31;;;;;;;3.75;3.20;;;;;;;-142.91;100.00;56616.03;5008628;28;20203;-64
2022/07/17 04:41:58;;;;;;;4.18;2.72;;;;;;;-142.91;100.00;56616.03;5010482;28;20210;-64
2022/07/17 04:44:25;;;;;;;3.10;2.80;;;;;;;-142.91;100.00;56616.03;5010840;28;20209;-64
2022/07/17 04:46:52;;;;;;;3.95;3.13;;;;;;;-142.91;100.00;56616.03;5010224;28;20832;-64
2022/07/17 04:49:20;;;;;;;2.70;2.50;;;;;;;-142.91;100.00;56616.03;5011157;28;20731;-64
2022/07/17 04:51:46;;;;;;;2.60;2.35;;;;;;;-142.91;100.00;56616.03;5010091;28;20217;-63
2022/07/17 04:54:13;;;;;;;2.85;2.50;;;;;;;-142.91;100.00;56616.03;5009250;28;20207;-64
2022/07/17 04:56:40;;;;;;;4.43;3.05;;;;;;;-142.91;100.00;56616.03;5009680;28;20207;-64
2022/07/17 04:59:07;;;;;;;2.60;2.50;;;;;;;-142.91;100.00;56616.03;5010451;28;20696;-64
2022/07/17 05:01:34;;;;;;;2.92;2.47;;;;;;;-142.91;100.00;56616.03;5009556;28;21423;-64
2022/07/17 05:04:01;;;;;;;3.30;2.60;;;;;;;-142.91;100.00;56616.03;5008817;28;20606;-64
2022/07/17 05:06:29;;;;;;;4.88;2.90;;;;;;;-142.91;100.00;56616.03;5010036;28;20312;-64
2022/07/17 05:08:56;;;;;;;4.00;2.53;;;;;;;-142.91;100.00;56616.03;5009745;28;20223;-63
2022/07/17 05:11:23;;;;;;;3.25;2.95;;;;;;;-142.91;100.00;56616.03;5009417;28;20203;-64
2022/07/17 05:13:50;;;;;;;4.00;2.85;;;;;;;-142.91;100.00;56616.03;5008889;28;20213;-65
2022/07/17 05:16:17;;;;;;;3.30;2.35;;;;;;;-142.91;100.00;56616.03;5009724;28;20676;-64
2022/07/17 05:18:43;;;;;;;4.68;2.60;;;;;;;-142.91;100.00;56616.03;5009838;28;20210;-64
2022/07/17 05:21:10;;;;;;;3.45;2.38;;;;;;;-142.91;100.00;56616.03;5009364;28;20215;-64
2022/07/17 05:23:38;;;;;;;2.78;2.58;;;;;;;-142.91;100.00;56616.03;5009966;28;20276;-64
2022/07/17 05:26:05;;;;;;;3.25;2.63;;;;;;;-142.91;100.00;56616.03;5010383;28;20218;-63
2022/07/17 05:28:32;;;;;;;2.78;2.63;;;;;;;-142.91;100.00;56616.03;5010193;28;20227;-64
2022/07/17 05:30:59;;;;;;;3.10;2.90;;;;;;;-142.91;100.00;56616.03;5009329;28;20740;-67
2022/07/17 05:33:26;;;;;;;3.33;3.03;;;;;;;-142.91;100.00;56616.03;5008953;28;20205;-65
2022/07/17 05:35:52;;;;;;;4.03;2.60;;;;;;;-142.91;100.00;56616.03;5009142;28;20211;-65
2022/07/17 05:38:19;;;;;;;3.25;2.92;;;;;;;-142.91;100.00;56616.03;5009012;28;20699;-65
2022/07/17 05:40:47;;;;;;;3.05;2.67;;;;;;;-142.91;100.00;56616.03;5032382;22;20235;-64
2022/07/17 05:43:14;;;;;;;3.10;2.90;;;;;;;-142.91;100.00;56616.03;5008420;28;20257;-64
2022/07/17 05:45:41;;;;;;;4.32;2.60;;;;;;;-142.91;100.00;56616.03;5006772;28;20210;-64
2022/07/17 05:48:08;;;;;;;3.20;2.90;;;;;;;-142.91;100.00;56616.03;5008079;28;20312;-64
2022/07/17 05:50:35;;;;;;;3.33;3.10;;;;;;;-142.91;100.00;56616.03;5006573;28;20211;-64
2022/07/17 05:53:02;;;;;;;3.08;2.88;;;;;;;-142.91;100.00;56616.03;5008224;28;20203;-63
2022/07/17 05:55:28;;;;;;;2.95;2.65;;;;;;;-142.91;100.00;56616.03;5008601;28;20203;-65
2022/07/17 05:57:57;;;;;;;3.30;2.90;;;;;;;-142.91;100.00;56616.03;5008752;28;20191;-65
2022/07/17 06:00:23;;;;;;;2.70;2.50;;;;;;;-142.91;100.00;56616.03;5008405;28;20217;-64
2022/07/17 06:02:50;;;;;;;4.97;2.80;;;;;;;-142.91;100.00;56616.03;5006233;28;20264;-63
2022/07/17 06:05:17;;;;;;;3.00;2.80;;;;;;;-142.91;100.00;56616.03;5007747;28;20876;-63
2022/07/17 06:07:44;;;;;;;5.60;3.35;;;;;;;-142.91;100.00;56616.03;5006916;28;20245;-64
2022/07/17 06:10:11;;;;;;;3.47;3.00;;;;;;;-142.91;100.00;56616.03;5008319;28;20210;-64
2022/07/17 06:12:37;;;;;;;7.72;3.33;;;;;;;-142.91;100.00;56616.03;5005634;28;20202;-64
2022/07/17 06:15:06;;;;;;;3.75;3.45;;;;;;;-142.91;100.00;56616.03;5007308;28;20585;-63
2022/07/17 06:17:33;;;;;;;4.15;3.72;;;;;;;-142.91;100.00;56616.03;5008919;28;20720;-63
2022/07/17 06:20:00;;;;;;;3.20;2.13;;;;;;;-142.91;100.00;56616.03;5006637;28;20211;-64
2022/07/17 06:22:27;;;;;;;6.05;3.17;;;;;;;-142.91;100.00;56616.03;5006638;28;20207;-66
2022/07/17 06:24:54;;;;;;;6.18;3.45;;;;;;;-142.91;100.00;56616.03;5006550;28;20269;-64
2022/07/17 06:27:20;;;;;;;2.90;2.70;;;;;;;-142.91;100.00;56616.03;5008094;28;20195;-64
2022/07/17 06:29:47;;;;;;;4.43;2.63;;;;;;;-142.91;100.00;56616.03;5007532;28;20234;-64
2022/07/17 06:32:16;;;;;;;3.47;3.17;;;;;;;-142.91;100.00;56616.03;5008879;28;20265;-65
2022/07/17 06:34:43;;;;;;;3.03;2.88;;;;;;;-142.91;100.00;56616.03;5006002;28;20208;-63
2022/07/17 06:37:10;;;;;;;4.13;2.47;;;;;;;-142.91;100.00;56616.03;5007660;28;20202;-65
2022/07/17 06:39:36;;;;;;;2.90;2.70;;;;;;;-142.91;100.00;56616.03;5006287;28;20288;-64
2022/07/17 06:42:03;;;;;;;4.00;2.90;;;;;;;-142.91;100.00;56616.03;5006607;28;20245;-65
2022/07/17 06:44:30;;;;;;;3.17;2.65;;;;;;;-142.91;100.00;56616.03;5007309;28;20203;-64
2022/07/17 06:46:57;;;;;;;3.63;2.85;;;;;;;-142.91;100.00;56616.03;5006651;28;20212;-65
2022/07/17 06:49:25;;;;;;;2.97;2.78;;;;;;;-142.91;100.00;56616.03;5005476;28;21003;-65
2022/07/17 06:51:52;;;;;;;7.85;2.67;;;;;;;-142.91;100.00;56616.03;5008171;28;20207;-64
2022/07/17 06:54:19;;;;;;;3.10;2.60;;;;;;;-142.91;100.00;56616.03;5004865;28;20656;-65
2022/07/17 06:56:46;;;;;;;3.55;3.33;;;;;;;-142.91;100.00;56616.03;5007849;28;20214;-63
2022/07/17 06:59:12;;;;;;;3.50;3.20;;;;;;;-142.91;100.00;56616.03;5006646;28;20202;-64
2022/07/17 07:01:39;;;;;;;4.10;2.45;;;;;;;-142.91;100.00;56616.03;5005464;28;20437;-64
2022/07/17 07:04:06;;;;;;;4.25;2.60;;;;;;;-142.91;100.00;56616.03;5009399;28;20199;-65
2022/07/17 07:06:34;;;;;;;6.15;2.70;;;;;;;-142.91;100.00;56616.03;5011834;28;20227;-64
2022/07/17 07:09:01;;;;;;;4.28;3.97;;;;;;;-142.91;100.00;56616.03;5011754;28;20228;-65
2022/07/17 07:11:28;;;;;;;2.92;2.63;;;;;;;-142.91;100.00;56616.03;5009728;28;20221;-64
2022/07/17 07:13:55;;;;;;;2.88;2.53;;;;;;;-142.91;100.00;56616.03;5009951;28;20900;-65
2022/07/17 07:16:22;;;;;;;2.78;2.58;;;;;;;-142.91;100.00;56616.03;5010994;28;20203;-65
2022/07/17 07:18:49;;;;;;;2.25;2.15;;;;;;;-142.91;100.00;56616.03;5010891;28;20277;-66
2022/07/17 07:21:16;;;;;;;2.72;2.55;;;;;;;-142.91;100.00;56616.03;5010475;28;20203;-65
2022/07/17 07:23:44;;;;;;;5.05;4.53;;;;;;;-142.91;100.00;56616.03;5008863;28;20203;-65
2022/07/17 07:26:11;;;;;;;7.88;6.85;;;;;;;-142.91;100.00;56616.03;5010528;28;20811;-65
2022/07/17 07:28:37;;;;;;;4.32;3.47;;;;;;;-142.91;100.00;56616.03;5010908;28;21031;-64
2022/07/17 07:31:04;;;;;;;5.28;4.82;;;;;;;-142.91;100.00;56616.03;5008943;28;20211;-64
2022/07/17 07:33:31;;;;;;;2.47;2.38;;;;;;;-142.91;100.00;56616.03;5009144;28;20207;-64
2022/07/17 07:35:58;;;;;;;7.07;2.53;;;;;;;-142.91;100.00;56616.03;5009822;28;20215;-64
2022/07/17 07:38:25;;;;;;;2.55;2.45;;;;;;;-142.91;100.00;56616.03;5010514;28;20858;-65
2022/07/17 07:40:53;;;;;;;2.45;2.35;;;;;;;-142.91;100.00;56616.03;5009166;28;20250;-64
2022/07/17 07:43:20;;;;;;;3.97;3.63;;;;;;;-142.91;100.00;56616.03;5010350;28;20199;-64
2022/07/17 07:45:47;;;;;;;3.20;3.00;;;;;;;-142.91;100.00;56616.03;5009696;28;20207;-65
2022/07/17 07:48:13;;;;;;;4.38;3.30;;;;;;;-142.91;100.00;56616.03;5008325;28;20863;-64
2022/07/17 07:50:41;;;;;;;3.33;3.13;;;;;;;-142.91;100.00;56616.03;5010184;28;20211;-64
2022/07/17 07:53:08;;;;;;;2.78;2.67;;;;;;;-142.91;100.00;56616.03;5009226;28;20215;-64
2022/07/17 07:55:35;;;;;;;2.88;2.50;;;;;;;-142.91;100.00;56616.03;5009839;28;20202;-65
2022/07/17 07:58:05;;;;;;;3.75;3.10;;;;;;;-142.91;100.00;56616.03;5010003;28;22539;-65
2022/07/17 08:00:32;;;;;;;4.07;3.67;;;;;;;-142.91;100.00;56616.03;5009673;28;20199;-64
2022/07/17 08:02:58;;;;;;;3.33;2.85;;;;;;;-142.91;100.00;56616.03;5010412;28;20215;-65
2022/07/17 08:05:25;;;;;;;3.45;3.15;;;;;;;-142.91;100.00;56616.03;5009851;28;20230;-65
2022/07/17 08:07:52;;;;;;;3.13;2.92;;;;;;;-142.91;100.00;56616.03;5010388;28;20199;-64
2022/07/17 08:10:19;;;;;;;2.90;2.70;;;;;;;-142.91;100.00;56616.03;5008489;28;20712;-64
2022/07/17 08:12:46;;;;;;;2.75;2.55;;;;;;;-142.91;100.00;56616.03;5008514;28;20214;-64
2022/07/17 08:15:15;;;;;;;5.30;2.53;;;;;;;-142.91;100.00;56616.03;5008881;28;20203;-64
2022/07/17 08:17:42;;;;;;;2.90;2.70;;;;;;;-142.91;100.00;56616.03;5010414;28;20207;-65
2022/07/17 08:20:10;;;;;;;3.05;2.85;;;;;;;-142.91;100.00;56616.03;5010918;28;20207;-64
2022/07/17 08:22:36;;;;;;;2.92;2.55;;;;;;;-142.91;100.00;56616.03;5011300;28;20203;-64
2022/07/17 08:25:04;;;;;;;3.20;2.70;;;;;;;-142.91;100.00;56616.03;5010199;28;20211;-64
2022/07/17 08:27:36;;;;;;;3.92;2.97;;;;;;;-142.91;100.00;56616.03;5009249;28;20214;-64
2022/07/17 08:30:03;;;;;;;3.30;2.83;;;;;;;-142.91;100.00;56616.03;5008192;28;20230;-64
2022/07/17 08:32:32;;;;;;;3.75;3.55;;;;;;;-142.91;100.00;56616.03;5011034;28;20826;-65
2022/07/17 08:34:58;;;;;;;6.65;3.97;;;;;;;-142.91;100.00;56616.03;5007077;28;20211;-65
2022/07/17 08:37:25;;;;;;;2.97;2.70;;;;;;;-142.91;100.00;56616.03;5009605;28;20207;-64
2022/07/17 08:39:53;;;;;;;3.63;3.00;;;;;;;-142.91;100.00;56616.03;5008135;28;20243;-64
2022/07/17 08:42:19;;;;;;;4.13;3.10;;;;;;;-142.91;100.00;56616.03;5009696;28;20683;-65
2022/07/17 08:44:47;;;;;;;3.58;2.50;;;;;;;-142.91;100.00;56616.03;5008946;28;20689;-63
2022/07/17 08:47:15;;;;;;;5.60;5.13;;;;;;;-142.91;100.00;56616.03;5007190;28;20631;-64
2022/07/17 08:49:45;;;;;;;4.07;3.70;;;;;;;-142.91;100.00;56616.03;5008176;28;20227;-64
2022/07/17 08:52:13;;;;;;;2.72;2.40;;;;;;;-142.91;100.00;56616.03;5008321;28;20203;-63
2022/07/17 08:54:40;;;;;;;3.35;3.20;;;;;;;-142.91;100.00;56616.03;5009880;28;20206;-63
2022/07/17 08:57:07;;;;;;;7.40;2.88;;;;;;;-142.91;100.00;56616.03;5008233;28;20213;-64
2022/07/17 08:59:36;;;;;;;2.90;2.70;;;;;;;-142.91;100.00;56616.03;5008048;28;20218;-64
2022/07/17 09:02:05;;;;;;;4.40;2.58;;;;;;;-142.91;100.00;56616.03;5009067;28;20214;-64
2022/07/17 09:04:31;;;;;;;3.38;2.70;;;;;;;-142.91;100.00;56616.03;5007010;28;20238;-64
2022/07/17 09:07:02;;;;;;;3.92;3.63;;;;;;;-142.91;100.00;56616.03;5008996;28;20259;-63
2022/07/17 09:09:30;;;;;;;5.15;3.42;;;;;;;-142.91;100.00;56616.03;5008134;28;22001;-63
2022/07/17 09:11:59;;;;;;;3.53;3.10;;;;;;;-142.91;100.00;56616.03;5006320;28;20204;-66
2022/07/17 09:14:38;;;;;;;3.22;2.97;;;;;;;-142.91;100.00;56616.03;5007026;28;20211;-65
2022/07/17 09:17:06;;;;;;;2.97;2.78;;;;;;;-142.91;100.00;56616.03;5006992;28;20195;-64
2022/07/17 09:19:34;;;;;;;2.90;2.75;;;;;;;-142.91;100.00;56616.03;5007393;28;20214;-64
2022/07/17 09:22:11;;;;;;;3.10;2.80;;;;;;;-142.91;100.00;56616.03;5009331;28;20210;-64
2022/07/17 09:24:41;;;;;;;6.13;5.53;;;;;;;-142.91;100.00;56616.03;5006102;28;20219;-63
2022/07/17 09:27:08;;;;;;;3.58;2.70;;;;;;;-142.91;100.00;56616.03;5009722;28;20808;-69
2022/07/17 09:29:35;;;;;;;3.38;3.08;;;;;;;-142.91;100.00;56616.03;5010154;28;20223;-73
2022/07/17 09:32:02;;;;;;;5.38;3.22;;;;;;;-142.91;100.00;56616.03;5008479;28;20234;-71
2022/07/17 09:34:28;;;;;;;3.72;3.15;;;;;;;-142.91;100.00;56616.03;5011626;28;20206;-71
2022/07/17 09:37:02;;;;;;;3.88;3.00;;;;;;;-142.91;100.00;56616.03;5008307;28;20199;-70
2022/07/17 09:39:37;;;;;;;2.65;2.22;;;;;;;-142.91;100.00;56616.03;5009786;28;20840;-70
2022/07/17 09:42:04;;;;;;;3.20;2.90;;;;;;;-142.91;100.00;56616.03;5008811;28;20202;-71
2022/07/17 09:44:31;;;;;;;2.92;2.60;;;;;;;-142.91;100.00;56616.03;5009573;28;21557;-70
2022/07/17 09:46:58;;;;;;;4.25;2.63;;;;;;;-142.91;100.00;56616.03;5009401;28;20857;-70
2022/07/17 09:49:27;;;;;;;2.60;2.35;;;;;;;-142.91;100.00;56616.03;5005917;28;20284;-69
2022/07/17 09:51:54;;;;;;;20.30;16.65;;;;;;;-142.91;100.00;56616.03;5010561;28;20564;-69
2022/07/17 09:54:23;;;;;;;7.30;3.45;;;;;;;-142.91;100.00;56616.03;5007374;28;20191;-69
2022/07/17 09:56:52;;;;;;;7.57;3.35;;;;;;;-142.91;100.00;56616.03;5011095;28;20210;-72
2022/07/17 09:59:20;;;;;;;7.05;4.72;;;;;;;-142.91;100.00;56616.03;5011147;28;20253;-72
2022/07/17 10:01:49;;;;;;;5.32;3.83;;;;;;;-142.91;100.00;56616.03;5010698;28;20211;-71
2022/07/17 10:04:17;;;;;;;3.60;3.30;;;;;;;-142.91;100.00;56616.03;5008058;28;20211;-72
2022/07/17 10:06:44;;;;;;;3.90;3.63;;;;;;;-142.91;100.00;56616.03;5005249;28;20290;-72
2022/07/17 10:09:13;;;;;;;4.22;3.83;;;;;;;-142.91;100.00;56616.03;5005880;28;20233;-69
2022/07/17 10:11:41;;;;;;;4.90;4.00;;;;;;;-142.91;100.00;56616.03;5007651;28;20203;-69
2022/07/17 10:14:12;;;;;;;3.42;3.22;;;;;;;-142.91;100.00;56616.03;5009349;28;20211;-69
2022/07/17 10:16:39;;;;;;;3.67;2.75;;;;;;;-142.91;100.00;56616.03;5009172;28;21777;-70
2022/07/17 10:19:16;;;;;;;4.43;3.08;;;;;;;-142.91;100.00;56616.03;5009742;28;20206;-71
2022/07/17 10:21:54;;;;;;;2.58;2.38;;;;;;;-142.91;100.00;56616.03;5009346;28;20605;-73
2022/07/17 10:24:20;;;;;;;3.42;3.22;;;;;;;-142.91;100.00;56616.03;5007282;28;21101;-72
2022/07/17 10:26:49;;;;;;;2.63;2.42;;;;;;;-142.91;100.00;56616.03;5012039;28;20226;-71
2022/07/17 10:29:38;;;;;;;3.90;2.78;;;;;;;-142.91;100.00;56616.03;5009066;28;20231;-71
2022/07/17 10:32:09;;;;;;;226.38;175.30;;;;;;;-142.91;100.00;56616.03;5009782;28;20210;-70
2022/07/17 10:34:41;;;;;;;6.90;5.97;;;;;;;-142.91;100.00;56616.03;5012604;28;20225;-70
2022/07/17 10:37:16;;;;;;;4.03;3.63;;;;;;;-142.91;100.00;56616.03;5008745;28;20217;-71
2022/07/17 10:39:54;;;;;;;6.15;5.55;;;;;;;-142.91;100.00;56616.03;5006850;28;20308;-70
2022/07/17 10:42:39;;;;;;;4.10;3.70;;;;;;;-142.91;100.00;56616.03;5006745;28;20326;-71
2022/07/17 10:45:10;;;;;;;6.25;3.28;;;;;;;-142.91;100.00;56616.03;5007968;28;20631;-71
2022/07/17 10:47:48;;;;;;;6.57;2.85;;;;;;;-142.91;100.00;56616.03;5007086;28;20223;-71
2022/07/17 10:50:16;;;;;;;3.00;2.80;;;;;;;-142.91;100.00;56616.03;5007444;28;20234;-70
2022/07/17 10:52:43;;;;;;;3.05;2.85;;;;;;;-142.91;100.00;56616.03;5007105;28;20202;-70
2022/07/17 10:55:21;;;;;;;2.78;2.58;;;;;;;-142.91;100.00;56616.03;5005625;28;20213;-71
2022/07/17 10:57:49;;;;;;;3.22;2.28;;;;;;;-142.91;100.00;56616.03;5006706;28;20976;-70
2022/07/17 11:00:17;;;;;;;3.05;2.78;;;;;;;-142.91;100.00;56616.03;5007006;28;20235;-70
2022/07/17 11:02:45;;;;;;;4.35;3.88;;;;;;;-142.91;100.00;56616.03;5007094;28;20203;-70
2022/07/17 11:05:14;;;;;;;3.30;3.13;;;;;;;-142.91;100.00;56616.03;5006159;28;20227;-71
2022/07/17 11:07:50;;;;;;;3.00;2.67;;;;;;;-142.91;100.00;56616.03;5009562;28;20545;-70
2022/07/17 11:10:17;;;;;;;3.17;2.92;;;;;;;-142.91;100.00;56616.03;5007312;28;20230;-71
2022/07/17 11:12:44;;;;;;;2.55;2.45;;;;;;;-142.91;100.00;56616.03;5006423;28;20217;-72